createdAt,value
2018-09-30T00:00:01.745Z,91.1
2018-09-30T00:05:02.049Z,91.1
2018-09-30T00:10:01.330Z,89.8
2018-09-30T00:15:01.741Z,89.22
2018-09-30T00:20:02.089Z,87.86
2018-09-30T00:25:01.353Z,86.85
2018-09-30T00:30:01.670Z,87.76
2018-09-30T00:35:02.110Z,89.21
2018-09-30T00:40:01.647Z,89.83
2018-09-30T00:45:01.965Z,90.04
2018-09-30T00:50:01.570Z,91.18
2018-09-30T00:55:01.892Z,91.55
2018-09-30T01:00:02.256Z,92.08
2018-09-30T01:05:01.675Z,92.09
2018-09-30T01:10:02.891Z,91.48
2018-09-30T01:15:01.278Z,91.61
2018-09-30T01:20:01.603Z,92.07
2018-09-30T01:25:01.934Z,92.43
2018-09-30T01:30:01.287Z,93.12
2018-09-30T01:35:01.646Z,93.49
2018-09-30T01:40:01.949Z,93.93
2018-09-30T01:45:01.287Z,92.8
2018-09-30T01:50:01.587Z,91.76
2018-09-30T01:55:01.907Z,92.2
2018-09-30T02:00:01.155Z,93
2018-09-30T02:05:01.383Z,93.12
2018-09-30T02:10:01.696Z,92
2018-09-30T02:15:02.001Z,91.35
2018-09-30T02:20:01.372Z,90.49
2018-09-30T02:25:01.759Z,89.92
2018-09-30T02:30:02.267Z,89.97
2018-09-30T02:35:01.609Z,89.99
2018-09-30T02:40:01.219Z,89.94
2018-09-30T02:45:01.507Z,89.58
2018-09-30T02:50:01.895Z,89.51
2018-09-30T02:55:01.167Z,89.81
2018-09-30T03:00:02.370Z,89.76
2018-09-30T03:05:01.754Z,91.05
2018-09-30T03:10:02.141Z,91.2
2018-09-30T03:15:01.488Z,92.35
2018-09-30T03:20:01.827Z,93.4
2018-09-30T03:25:02.098Z,93.99
2018-09-30T03:30:01.365Z,93.57
2018-09-30T03:35:01.678Z,93.71
2018-09-30T03:40:01.930Z,93.77
2018-09-30T03:45:01.179Z,93.91
2018-09-30T03:50:01.420Z,94.28
2018-09-30T03:55:01.711Z,94.6
2018-09-30T04:00:02.013Z,94.95
2018-09-30T04:05:01.403Z,95.62
2018-09-30T04:10:01.879Z,95.24
2018-09-30T04:15:01.265Z,95.36
2018-09-30T04:20:01.667Z,95.47
2018-09-30T04:25:02.067Z,95.6
2018-09-30T04:30:01.500Z,96.12
2018-09-30T04:35:01.805Z,95.94
2018-09-30T04:40:01.358Z,95.3
2018-09-30T04:45:01.639Z,95.15
2018-09-30T04:50:01.834Z,94.91
2018-09-30T04:55:01.249Z,95.18
2018-09-30T05:00:01.571Z,95.39
2018-09-30T05:05:01.857Z,95.54
2018-09-30T05:10:02.149Z,94.72
2018-09-30T05:15:01.404Z,93.09
2018-09-30T05:20:01.794Z,91.75
2018-09-30T05:25:02.050Z,91.1
2018-09-30T05:30:01.280Z,91.25
2018-09-30T05:35:01.549Z,92.41
2018-09-30T05:40:01.900Z,92.51
2018-09-30T05:45:02.139Z,93.51
2018-09-30T05:50:01.370Z,94.52
2018-09-30T05:55:01.640Z,95.12
2018-09-30T06:00:01.912Z,95.6
2018-09-30T06:05:01.297Z,95.81
2018-09-30T06:10:01.564Z,95.99
2018-09-30T06:15:01.823Z,96.31
2018-09-30T06:20:02.163Z,96.44
2018-09-30T06:25:01.503Z,96.66
2018-09-30T06:30:01.828Z,97.35
2018-09-30T06:35:02.159Z,97.05
2018-09-30T06:40:01.434Z,97.26
2018-09-30T06:45:01.822Z,96.63
2018-09-30T06:50:01.217Z,96.64
2018-09-30T06:55:01.523Z,96.74
2018-09-30T07:00:01.933Z,96.92
2018-09-30T07:05:01.572Z,96.65
2018-09-30T07:10:02.136Z,95.06
2018-09-30T07:15:01.447Z,90.68
2018-09-30T07:20:01.824Z,82.4
2018-09-30T07:25:02.114Z,80.65
2018-09-30T07:30:01.393Z,78.11
2018-09-30T07:35:01.689Z,76.42
2018-09-30T07:40:02.064Z,75.9
2018-09-30T07:45:01.322Z,71.61
2018-09-30T07:50:01.617Z,72.15
2018-09-30T07:55:01.900Z,70.33
2018-09-30T08:00:02.194Z,68.84
2018-09-30T08:05:01.501Z,74.95
2018-09-30T08:10:01.813Z,78.19
2018-09-30T08:15:02.109Z,77.68
2018-09-30T08:20:01.468Z,74.39
2018-09-30T08:25:01.753Z,74.53
2018-09-30T08:30:02.093Z,72.52
2018-09-30T08:35:01.377Z,73.75
2018-09-30T08:40:01.930Z,73.51
2018-09-30T08:45:01.273Z,71.56
2018-09-30T08:50:01.593Z,73.17
2018-09-30T08:55:01.925Z,66.37
2018-09-30T09:00:01.190Z,67.13
2018-09-30T09:05:01.435Z,67.73
2018-09-30T09:10:01.798Z,65.65
2018-09-30T09:15:02.154Z,64.51
2018-09-30T09:20:01.403Z,66.7
2018-09-30T09:25:01.717Z,60.81
2018-09-30T09:30:02.082Z,62.43
2018-09-30T09:35:01.529Z,63.07
2018-09-30T09:40:01.929Z,65.61
2018-09-30T09:45:01.177Z,61.02
2018-09-30T09:50:01.479Z,61.29
2018-09-30T09:55:01.793Z,58.75
2018-09-30T10:00:02.125Z,57.72
2018-09-30T10:05:01.498Z,58.58
2018-09-30T10:10:01.955Z,64.04
2018-09-30T10:15:01.236Z,58.59
2018-09-30T10:20:01.475Z,57.47
2018-09-30T10:25:01.813Z,59.26
2018-09-30T10:30:02.103Z,56.05
2018-09-30T10:35:01.356Z,56.97
2018-09-30T10:40:01.606Z,58.15
2018-09-30T10:45:01.878Z,52.39
2018-09-30T10:50:01.167Z,53.3
2018-09-30T10:55:01.428Z,57.86
2018-09-30T11:00:01.692Z,52.73
2018-09-30T11:05:02.093Z,56.31
2018-09-30T11:10:01.558Z,52.85
2018-09-30T11:15:02.130Z,55.23
2018-09-30T11:20:01.396Z,54.68
2018-09-30T11:25:01.699Z,53.47
2018-09-30T11:30:02.009Z,53.48
2018-09-30T11:35:01.356Z,54.63
2018-09-30T11:40:01.601Z,51.29
2018-09-30T11:45:01.911Z,47.45
2018-09-30T11:50:01.190Z,49.07
2018-09-30T11:55:01.423Z,49.18
2018-09-30T12:00:01.712Z,52.03
2018-09-30T12:05:01.999Z,54.09
2018-09-30T12:10:01.291Z,50.1
2018-09-30T12:15:01.529Z,50.96
2018-09-30T12:20:01.821Z,50.39
2018-09-30T12:25:02.199Z,56.09
2018-09-30T12:30:01.509Z,54.56
2018-09-30T12:35:01.863Z,53.54
2018-09-30T12:40:02.147Z,52.86
2018-09-30T12:45:01.392Z,52.12
2018-09-30T12:50:01.667Z,52.04
2018-09-30T12:55:01.921Z,53.22
2018-09-30T13:00:01.222Z,52.7
2018-09-30T13:05:01.482Z,55.84
2018-09-30T13:10:01.732Z,54.99
2018-09-30T13:15:02.041Z,54.17
2018-09-30T13:20:01.525Z,58.03
2018-09-30T13:25:02.153Z,53.93
2018-09-30T13:30:01.445Z,54.22
2018-09-30T13:35:01.819Z,53.6
2018-09-30T13:40:02.225Z,51.66
2018-09-30T13:45:01.625Z,55.57
2018-09-30T13:50:01.974Z,50.77
2018-09-30T13:55:01.230Z,51.9
2018-09-30T14:00:01.529Z,54.06
2018-09-30T14:05:01.897Z,55.83
2018-09-30T14:10:01.168Z,53.83
2018-09-30T14:15:01.417Z,53.46
2018-09-30T14:20:01.708Z,52.34
2018-09-30T14:25:02.184Z,53.26
2018-09-30T14:30:01.443Z,54.9
2018-09-30T14:35:01.739Z,51.97
2018-09-30T14:40:02.024Z,59.72
2018-09-30T14:45:01.272Z,53.19
2018-09-30T14:50:01.564Z,56.97
2018-09-30T14:55:01.865Z,56.88
2018-09-30T15:00:02.108Z,51.48
2018-09-30T15:05:01.369Z,55.85
2018-09-30T15:10:01.688Z,57.64
2018-09-30T15:15:01.982Z,58.79
2018-09-30T15:20:01.215Z,59.4
2018-09-30T15:25:01.454Z,62.54
2018-09-30T15:30:01.733Z,62.63
2018-09-30T15:35:02.101Z,63.55
2018-09-30T15:40:01.382Z,65.17
2018-09-30T15:45:01.637Z,66.02
2018-09-30T15:50:01.921Z,64.8
2018-09-30T15:55:01.190Z,64.16
2018-09-30T16:00:01.434Z,58.98
2018-09-30T16:05:01.774Z,57.53
2018-09-30T16:10:02.039Z,63.19
2018-09-30T16:15:01.279Z,57.46
2018-09-30T16:20:01.540Z,56.96
2018-09-30T16:25:01.833Z,58.74
2018-09-30T16:30:02.160Z,58.52
2018-09-30T16:35:01.576Z,61.71
2018-09-30T16:40:01.952Z,63.65
2018-09-30T16:45:01.195Z,63.28
2018-09-30T16:50:01.448Z,63.17
2018-09-30T16:55:01.741Z,64
2018-09-30T17:00:01.987Z,64.32
2018-09-30T17:05:01.289Z,66.03
2018-09-30T17:10:01.573Z,68.21
2018-09-30T17:15:01.925Z,69.46
2018-09-30T17:20:01.226Z,70.5
2018-09-30T17:25:01.489Z,70.85
2018-09-30T17:30:01.831Z,72.27
2018-09-30T17:35:02.090Z,73.28
2018-09-30T17:40:01.312Z,73.65
2018-09-30T17:45:01.568Z,74.81
2018-09-30T17:50:01.845Z,74.83
2018-09-30T17:55:02.108Z,75.97
2018-09-30T18:00:01.400Z,75.94
2018-09-30T18:05:01.797Z,77.09
2018-09-30T18:10:02.126Z,76.23
2018-09-30T18:15:01.364Z,77
2018-09-30T18:20:01.650Z,77.72
2018-09-30T18:25:01.997Z,78.12
2018-09-30T18:30:01.245Z,79.23
2018-09-30T18:35:01.656Z,79.12
2018-09-30T18:40:02.034Z,79.74
2018-09-30T18:45:01.386Z,79.58
2018-09-30T18:50:01.660Z,79.43
2018-09-30T18:55:01.923Z,79.59
2018-09-30T19:00:01.191Z,79.85
2018-09-30T19:05:01.561Z,80.6
2018-09-30T19:10:01.878Z,79.76
2018-09-30T19:15:02.306Z,79.21
2018-09-30T19:20:01.775Z,79.51
2018-09-30T19:25:02.289Z,80.15
2018-09-30T19:30:01.995Z,80.24
2018-09-30T19:35:01.432Z,80.13
2018-09-30T19:40:01.804Z,79.74
2018-09-30T19:45:02.244Z,80.14
2018-09-30T19:50:01.573Z,80.33
2018-09-30T19:55:01.968Z,81.23
2018-09-30T20:00:01.281Z,80.73
2018-09-30T20:05:01.617Z,81.31
2018-09-30T20:10:01.972Z,81.06
2018-09-30T20:15:01.759Z,82.24
2018-09-30T20:20:02.193Z,82.88
2018-09-30T20:25:01.549Z,83.82
2018-09-30T20:30:02.060Z,83.69
2018-09-30T20:35:01.415Z,84.58
2018-09-30T20:40:01.831Z,84.63
2018-09-30T20:45:02.237Z,84.72
2018-09-30T20:50:01.565Z,84.98
2018-09-30T20:55:01.920Z,85.43
2018-09-30T21:00:01.241Z,84.53
2018-09-30T21:05:01.598Z,84.18
2018-09-30T21:10:01.963Z,83.46
2018-09-30T21:15:01.249Z,84.37
2018-09-30T21:20:01.594Z,83.13
2018-09-30T21:25:02.009Z,83.04
2018-09-30T21:30:01.295Z,82.92
2018-09-30T21:35:01.641Z,83.14
2018-09-30T21:40:02.116Z,83.83
2018-09-30T21:45:01.434Z,84.23
2018-09-30T21:50:01.785Z,85.17
2018-09-30T21:55:02.392Z,85.37
2018-09-30T22:00:01.956Z,86.24
2018-09-30T22:05:01.290Z,86.81
2018-09-30T22:10:01.564Z,87.94
2018-09-30T22:15:02.013Z,87.57
2018-09-30T22:20:01.326Z,87.52
2018-09-30T22:25:01.674Z,88.28
2018-09-30T22:30:01.980Z,88.15
2018-09-30T22:35:01.289Z,88.63
2018-09-30T22:40:01.552Z,88.73
2018-09-30T22:45:01.958Z,87.98
2018-09-30T22:50:01.324Z,87.29
2018-09-30T22:55:01.599Z,88.39
2018-09-30T23:00:01.909Z,88.84
2018-09-30T23:05:01.222Z,89.27
2018-09-30T23:10:01.581Z,89.27
2018-09-30T23:20:01.346Z,90.8
2018-09-30T23:25:01.717Z,90.74
2018-09-30T23:30:01.221Z,91.03
2018-09-30T23:35:01.497Z,91.42
2018-09-30T23:40:01.793Z,92.35
2018-09-30T23:45:02.123Z,92.28
2018-09-30T23:50:01.432Z,92.46
2018-09-30T23:55:01.737Z,92.46
